»·PEaware :: N5491 KSNA-L19

N5491 :: KSNA-L19

FLIGHT INFORMATION

Flight Status: Arrived
Operator: Privately registered:
United States
More flights under this callsign
Pilot: Ben H. (9170)
Aircraft: PIPER PA-32 SARATOGA
(PA32)
More flights by this aircraft type
Origin: KSNA John Wayne-Orange Co
United States
Destination: L19 Wasco-Kern Co
United States
More flights between these airports :: More routes between these airports
Route: SLI V23 LAX V23 EHF
File this flight plan on PilotEdge
Remarks:
Altitude:
(Current/Filed)
8,000ft
Speed:
(Current/Filed)
150kts
Departed: 28-Jan-19 09:15 PM
Arrived: 28-Jan-19 10:13 PM
Distance/Time
Traveled:
138nm/0:57
Distance/Time
To Go:
Arrived

Flight Plot

Page will automatically refresh every two minutes.

Flight plan parsing failed; only flown route is shown


Map Options




Map Legend


Flown Route
Filed Route
Departure Airport
Arrival Airport
Navaid (VOR, NDB)
Fix

Horizontal Profiles

Position Reports

Time Latitude Longitude Heading Altitude Ground
Speed
28-Jan-19 20:58 33.668050 -117.875347 205 60ft 0kts
28-Jan-19 20:59 33.668050 -117.875347 205 60ft 0kts
28-Jan-19 21:00 33.668050 -117.875347 205 60ft 0kts
28-Jan-19 21:01 33.668050 -117.875347 205 60ft 0kts
28-Jan-19 21:02 33.668050 -117.875347 205 60ft 0kts
28-Jan-19 21:03 33.668050 -117.875347 205 60ft 0kts
28-Jan-19 21:04 33.668050 -117.875347 205 60ft 0kts
28-Jan-19 21:05 33.668050 -117.875347 205 60ft 0kts
28-Jan-19 21:06 33.668190 -117.874941 45 60ft 6kts
28-Jan-19 21:07 33.670133 -117.873854 28 60ft 9kts
28-Jan-19 21:08 33.672723 -117.872214 27 60ft 10kts
28-Jan-19 21:09 33.674487 -117.871093 28 60ft 6kts
28-Jan-19 21:10 33.676946 -117.869544 26 60ft 11kts
28-Jan-19 21:11 33.678121 -117.868400 105 60ft 0kts
28-Jan-19 21:12 33.678121 -117.868401 105 59ft 0kts
28-Jan-19 21:13 33.677501 -117.867761 187 59ft 12kts
28-Jan-19 21:14 33.660975 -117.884563 229 921ft 102kts
28-Jan-19 21:15 33.645886 -117.912924 287 2079ft 100kts
28-Jan-19 21:16 33.659915 -117.939700 302 3080ft 104kts
28-Jan-19 21:17 33.676639 -117.969867 303 3701ft 129kts
28-Jan-19 21:18 33.695156 -118.003051 303 4321ft 138kts
28-Jan-19 21:19 33.717644 -118.043409 303 5049ft 141kts
28-Jan-19 21:20 33.734382 -118.073497 304 5605ft 142kts
28-Jan-19 21:21 33.754727 -118.109728 304 6460ft 133kts
28-Jan-19 21:22 33.771183 -118.139279 304 7228ft 128kts
28-Jan-19 21:23 33.787366 -118.168468 304 7969ft 129kts
28-Jan-19 21:24 33.807446 -118.204438 304 8006ft 153kts
28-Jan-19 21:25 33.826770 -118.239286 304 8006ft 158kts
28-Jan-19 21:26 33.851761 -118.284445 304 8008ft 160kts
28-Jan-19 21:27 33.874457 -118.325511 304 8009ft 161kts
28-Jan-19 21:28 33.894661 -118.362111 304 8009ft 161kts
28-Jan-19 21:29 33.922310 -118.412232 304 8009ft 160kts
28-Jan-19 21:30 33.963725 -118.447597 338 8009ft 160kts
28-Jan-19 21:31 34.002302 -118.465786 338 8009ft 160kts
28-Jan-19 21:32 34.043784 -118.485889 338 8009ft 160kts
28-Jan-19 21:33 34.084486 -118.505790 338 8009ft 160kts
28-Jan-19 21:34 34.125277 -118.525896 338 8010ft 161kts
28-Jan-19 21:35 34.166097 -118.545940 337 8010ft 162kts
28-Jan-19 21:36 34.208200 -118.566597 337 8009ft 161kts
28-Jan-19 21:37 34.249821 -118.587041 337 8010ft 161kts
28-Jan-19 21:38 34.291390 -118.607499 338 8009ft 161kts
28-Jan-19 21:39 34.330909 -118.627015 338 8009ft 161kts
28-Jan-19 21:40 34.373915 -118.648213 338 8009ft 161kts
28-Jan-19 21:41 34.414340 -118.668148 337 8010ft 161kts
28-Jan-19 21:42 34.456696 -118.689037 337 7913ft 164kts
28-Jan-19 21:43 34.498717 -118.709816 337 7914ft 161kts
28-Jan-19 21:44 34.540426 -118.730457 337 7914ft 161kts
28-Jan-19 21:45 34.581918 -118.751019 337 7925ft 160kts
28-Jan-19 21:46 34.623056 -118.771433 338 7957ft 159kts
28-Jan-19 21:47 34.663599 -118.791569 338 7990ft 158kts
28-Jan-19 21:48 34.700557 -118.809941 338 8018ft 157kts
28-Jan-19 21:49 34.741304 -118.830212 338 8027ft 158kts
28-Jan-19 21:50 34.782046 -118.850497 338 8019ft 159kts
28-Jan-19 21:51 34.823849 -118.868140 344 8013ft 158kts
28-Jan-19 21:52 34.866146 -118.882783 344 8011ft 158kts
28-Jan-19 21:53 34.907827 -118.899362 334 8008ft 158kts
28-Jan-19 21:54 34.946849 -118.925049 332 7999ft 159kts
28-Jan-19 21:55 34.986260 -118.950344 332 7991ft 160kts
28-Jan-19 21:57 35.025095 -118.974894 332 7982ft 161kts
28-Jan-19 21:58 35.065230 -119.000244 332 7739ft 168kts
28-Jan-19 21:59 35.107808 -119.027180 332 7242ft 176kts
28-Jan-19 22:00 35.147933 -119.052573 333 6783ft 176kts
28-Jan-19 22:01 35.190607 -119.079641 333 6292ft 175kts
28-Jan-19 22:02 35.233882 -119.107124 333 5793ft 175kts
28-Jan-19 22:03 35.277349 -119.134761 333 5293ft 175kts
28-Jan-19 22:04 35.320606 -119.162298 333 4795ft 176kts
28-Jan-19 22:05 35.363885 -119.189882 333 4293ft 173kts
28-Jan-19 22:06 35.406464 -119.217056 333 3789ft 167kts
28-Jan-19 22:07 35.446217 -119.242478 333 3293ft 161kts
28-Jan-19 22:08 35.483410 -119.266267 332 2811ft 151kts
28-Jan-19 22:09 35.519238 -119.289246 332 2304ft 140kts
28-Jan-19 22:10 35.550528 -119.309330 332 2257ft 116kts
28-Jan-19 22:11 35.584453 -119.315080 347 1649ft 125kts
28-Jan-19 22:12 35.605358 -119.336208 314 834ft 82kts
28-Jan-19 22:13 35.619720 -119.353532 311 314ft 27kts
28-Jan-19 22:14 35.620015 -119.353320 135 314ft 9kts
28-Jan-19 22:15 35.617437 -119.350117 93 314ft 6kts
28-Jan-19 22:16 35.617442 -119.349730 168 314ft 0kts
28-Jan-19 22:16 35.617442 -119.349730 168 314ft 0kts
28-Jan-19 22:17 35.617442 -119.349730 168 314ft 0kts
28-Jan-19 22:19 35.617442 -119.349730 168 314ft 0kts

Navigation Log

Ident Type
Flight plan parsing failed, navigation log unavailable